createdAt,value
2019-01-25T00:00:29.139Z,1009.5
2019-01-25T00:01:09.732Z,1009.47
2019-01-25T00:01:50.298Z,1009.52
2019-01-25T00:02:30.894Z,1009.48
2019-01-25T00:03:11.491Z,1009.53
2019-01-25T00:03:52.089Z,1009.5
2019-01-25T00:04:32.673Z,1009.48
2019-01-25T00:05:13.264Z,1009.51
2019-01-25T00:05:53.840Z,1009.55
2019-01-25T00:06:34.460Z,1009.52
2019-01-25T00:07:15.028Z,1009.49
2019-01-25T00:07:55.616Z,1009.54
2019-01-25T00:08:36.224Z,1009.57
2019-01-25T00:09:16.805Z,1009.5
2019-01-25T00:09:58.675Z,1009.52
2019-01-25T00:10:38.026Z,1009.48
2019-01-25T00:11:18.614Z,1009.53
2019-01-25T00:11:59.190Z,1009.52
2019-01-25T00:12:39.780Z,1009.5
2019-01-25T00:13:20.376Z,1009.53
2019-01-25T00:14:00.972Z,1009.51
2019-01-25T00:14:41.558Z,1009.53
2019-01-25T00:15:22.171Z,1009.54
2019-01-25T00:16:02.756Z,1009.54
2019-01-25T00:16:43.349Z,1009.51
2019-01-25T00:17:23.929Z,1009.53
2019-01-25T00:18:04.536Z,1009.5
2019-01-25T00:18:45.148Z,1009.57
2019-01-25T00:19:25.741Z,1009.51
2019-01-25T00:20:06.361Z,1009.53
2019-01-25T00:20:46.894Z,1009.54
2019-01-25T00:21:27.474Z,1009.58
2019-01-25T00:22:08.071Z,1009.54
2019-01-25T00:22:48.669Z,1009.53
2019-01-25T00:23:29.264Z,1009.53
2019-01-25T00:24:09.856Z,1009.59
2019-01-25T00:24:50.440Z,1009.55
2019-01-25T00:25:31.048Z,1009.55
2019-01-25T00:26:11.648Z,1009.53
2019-01-25T00:26:52.234Z,1009.55
2019-01-25T00:27:32.806Z,1009.56
2019-01-25T00:28:13.409Z,1009.56
2019-01-25T00:28:53.982Z,1009.6
2019-01-25T00:29:34.571Z,1009.61
2019-01-25T00:30:15.150Z,1009.57
2019-01-25T00:30:55.728Z,1009.59
2019-01-25T00:31:36.320Z,1009.57
2019-01-25T00:32:16.914Z,1009.57
2019-01-25T00:32:57.513Z,1009.59
2019-01-25T00:33:38.074Z,1009.61
2019-01-25T00:34:18.671Z,1009.61
2019-01-25T00:34:59.261Z,1009.63
2019-01-25T00:35:39.842Z,1009.61
2019-01-25T00:36:20.441Z,1009.59
2019-01-25T00:37:01.009Z,1009.63
2019-01-25T00:37:41.590Z,1009.61
2019-01-25T00:38:22.178Z,1009.58
2019-01-25T00:39:02.765Z,1009.62
2019-01-25T00:39:43.352Z,1009.58
2019-01-25T00:40:23.929Z,1009.57
2019-01-25T00:41:04.522Z,1009.51
2019-01-25T00:41:45.113Z,1009.58
2019-01-25T00:42:25.674Z,1009.57
2019-01-25T00:43:06.247Z,1009.54
2019-01-25T00:43:46.828Z,1009.54
2019-01-25T00:44:27.439Z,1009.57
2019-01-25T00:45:08.019Z,1009.57
2019-01-25T00:45:48.605Z,1009.61
2019-01-25T00:46:29.187Z,1009.58
2019-01-25T00:47:09.840Z,1009.61
2019-01-25T00:47:50.401Z,1009.65
2019-01-25T00:48:30.994Z,1009.61
2019-01-25T00:49:11.610Z,1009.62
2019-01-25T00:49:52.211Z,1009.61
2019-01-25T00:50:32.806Z,1009.58
2019-01-25T00:51:13.397Z,1009.59
2019-01-25T00:51:53.975Z,1009.58
2019-01-25T00:52:34.564Z,1009.57
2019-01-25T00:53:15.156Z,1009.57
2019-01-25T00:53:55.732Z,1009.56
2019-01-25T00:54:36.321Z,1009.57
2019-01-25T00:55:16.952Z,1009.59
2019-01-25T00:55:57.551Z,1009.61
2019-01-25T00:56:38.128Z,1009.61
2019-01-25T00:57:18.724Z,1009.6
2019-01-25T00:57:59.331Z,1009.57
2019-01-25T00:58:39.897Z,1009.64
2019-01-25T00:59:20.508Z,1009.6
2019-01-25T01:00:01.087Z,1009.62
2019-01-25T01:00:41.725Z,1009.62
2019-01-25T01:01:22.310Z,1009.58
2019-01-25T01:02:02.901Z,1009.63
2019-01-25T01:02:43.484Z,1009.65
2019-01-25T01:03:24.078Z,1009.62
2019-01-25T01:04:04.697Z,1009.63
2019-01-25T01:04:45.275Z,1009.67
2019-01-25T01:05:25.872Z,1009.66
2019-01-25T01:06:06.434Z,1009.69
2019-01-25T01:06:47.032Z,1009.65
2019-01-25T01:07:27.622Z,1009.66
2019-01-25T01:08:08.207Z,1009.65
2019-01-25T01:08:48.781Z,1009.66
2019-01-25T01:09:29.368Z,1009.63
2019-01-25T01:10:13.941Z,1009.61
2019-01-25T01:10:50.539Z,1009.64
2019-01-25T01:11:31.115Z,1009.68
2019-01-25T01:12:11.713Z,1009.65
2019-01-25T01:12:52.312Z,1009.67
2019-01-25T01:13:32.959Z,1009.67
2019-01-25T01:14:13.554Z,1009.67
2019-01-25T01:14:54.117Z,1009.65
2019-01-25T01:15:34.718Z,1009.7
2019-01-25T01:16:15.293Z,1009.74
2019-01-25T01:16:55.887Z,1009.7
2019-01-25T01:17:36.455Z,1009.67
2019-01-25T01:18:17.036Z,1009.65
2019-01-25T01:18:57.615Z,1009.69
2019-01-25T01:19:38.228Z,1009.67
2019-01-25T01:20:18.788Z,1009.64
2019-01-25T01:20:59.384Z,1009.71
2019-01-25T01:21:41.908Z,1009.72
2019-01-25T01:22:22.505Z,1009.71
2019-01-25T01:23:05.904Z,1009.68
2019-01-25T01:23:46.491Z,1009.74
2019-01-25T01:24:27.085Z,1009.76
2019-01-25T01:25:07.664Z,1009.81
2019-01-25T01:25:48.240Z,1009.74
2019-01-25T01:26:28.819Z,1009.79
2019-01-25T01:27:09.405Z,1009.78
2019-01-25T01:27:50.004Z,1009.79
2019-01-25T01:28:30.592Z,1009.81
2019-01-25T01:29:11.170Z,1009.77
2019-01-25T01:29:51.747Z,1009.73
2019-01-25T01:30:32.303Z,1009.77
2019-01-25T01:31:12.900Z,1009.72
2019-01-25T01:31:53.465Z,1009.72
2019-01-25T01:32:34.064Z,1009.71
2019-01-25T01:33:14.644Z,1009.74
2019-01-25T01:33:55.223Z,1009.75
2019-01-25T01:34:35.806Z,1009.67
2019-01-25T01:35:16.388Z,1009.7
2019-01-25T01:35:56.977Z,1009.68
2019-01-25T01:36:37.549Z,1009.66
2019-01-25T01:37:18.129Z,1009.7
2019-01-25T01:37:58.717Z,1009.7
2019-01-25T01:38:39.315Z,1009.7
2019-01-25T01:39:19.896Z,1009.71
2019-01-25T01:40:00.488Z,1009.74
2019-01-25T01:40:41.066Z,1009.73
2019-01-25T01:41:21.649Z,1009.75
2019-01-25T01:42:02.217Z,1009.74
2019-01-25T01:42:42.813Z,1009.76
2019-01-25T01:43:23.610Z,1009.79
2019-01-25T01:44:04.207Z,1009.77
2019-01-25T01:44:44.788Z,1009.77
2019-01-25T01:45:25.394Z,1009.77
2019-01-25T01:46:05.991Z,1009.78
2019-01-25T01:46:46.561Z,1009.74
2019-01-25T01:47:27.148Z,1009.8
2019-01-25T01:48:07.742Z,1009.79
2019-01-25T01:48:48.338Z,1009.8
2019-01-25T01:49:28.899Z,1009.84
2019-01-25T01:50:09.481Z,1009.84
2019-01-25T01:50:50.093Z,1009.84
2019-01-25T01:51:30.685Z,1009.8
2019-01-25T01:52:11.278Z,1009.78
2019-01-25T01:52:51.862Z,1009.76
2019-01-25T01:53:32.429Z,1009.82
2019-01-25T01:54:13.029Z,1009.8
2019-01-25T01:54:53.614Z,1009.78
2019-01-25T01:55:34.198Z,1009.78
2019-01-25T01:56:14.794Z,1009.76
2019-01-25T01:56:55.373Z,1009.78
2019-01-25T01:57:35.967Z,1009.84
2019-01-25T01:58:16.543Z,1009.87
2019-01-25T01:58:57.193Z,1009.82
2019-01-25T01:59:37.794Z,1009.8
2019-01-25T02:00:18.416Z,1009.78
2019-01-25T02:00:58.965Z,1009.77
2019-01-25T02:01:39.548Z,1009.76
2019-01-25T02:02:20.111Z,1009.75
2019-01-25T02:03:00.698Z,1009.75
2019-01-25T02:03:41.273Z,1009.78
2019-01-25T02:04:21.877Z,1009.78
2019-01-25T02:05:02.440Z,1009.8
2019-01-25T02:05:43.038Z,1009.79
2019-01-25T02:06:23.612Z,1009.77
2019-01-25T02:07:04.207Z,1009.84
2019-01-25T02:07:44.771Z,1009.8
2019-01-25T02:08:25.352Z,1009.84
2019-01-25T02:09:05.984Z,1009.81
2019-01-25T02:09:46.610Z,1009.84
2019-01-25T02:10:29.364Z,1009.81
2019-01-25T02:11:07.766Z,1009.83
2019-01-25T02:11:48.352Z,1009.75
2019-01-25T02:12:28.931Z,1009.77
2019-01-25T02:13:09.547Z,1009.76
2019-01-25T02:13:50.111Z,1009.71
2019-01-25T02:14:30.723Z,1009.71
2019-01-25T02:15:11.308Z,1009.72
2019-01-25T02:15:51.902Z,1009.74
2019-01-25T02:16:32.480Z,1009.7
2019-01-25T02:17:13.055Z,1009.77
2019-01-25T02:17:53.653Z,1009.75
2019-01-25T02:18:34.229Z,1009.74
2019-01-25T02:19:14.814Z,1009.69
2019-01-25T02:19:55.367Z,1009.71
2019-01-25T02:20:35.967Z,1009.74
2019-01-25T02:21:16.541Z,1009.73
2019-01-25T02:21:57.125Z,1009.71
2019-01-25T02:22:37.691Z,1009.72
2019-01-25T02:23:18.281Z,1009.71
2019-01-25T02:23:58.867Z,1009.71
2019-01-25T02:24:39.467Z,1009.67
2019-01-25T02:25:20.040Z,1009.69
2019-01-25T02:26:00.638Z,1009.65
2019-01-25T02:26:41.211Z,1009.68
2019-01-25T02:27:21.830Z,1009.63
2019-01-25T02:28:02.450Z,1009.64
2019-01-25T02:28:43.030Z,1009.64
2019-01-25T02:29:23.649Z,1009.64
2019-01-25T02:30:04.244Z,1009.62
2019-01-25T02:30:44.876Z,1009.63
2019-01-25T02:31:25.458Z,1009.62
2019-01-25T02:32:06.062Z,1009.63
2019-01-25T02:32:46.695Z,1009.6
2019-01-25T02:33:27.352Z,1009.58
2019-01-25T02:34:07.987Z,1009.61
2019-01-25T02:34:48.629Z,1009.58
2019-01-25T02:35:29.229Z,1009.58
2019-01-25T02:36:09.871Z,1009.57
2019-01-25T02:36:50.468Z,1009.59
2019-01-25T02:37:31.076Z,1009.57
2019-01-25T02:38:11.662Z,1009.57
2019-01-25T02:38:52.352Z,1009.56
2019-01-25T02:39:32.933Z,1009.58
2019-01-25T02:40:13.542Z,1009.58
2019-01-25T02:40:54.141Z,1009.57
2019-01-25T02:41:34.743Z,1009.52
2019-01-25T02:42:15.344Z,1009.5
2019-01-25T02:42:55.962Z,1009.5
2019-01-25T02:43:36.635Z,1009.51
2019-01-25T02:44:17.241Z,1009.53
2019-01-25T02:44:57.835Z,1009.54
2019-01-25T02:45:38.441Z,1009.55
2019-01-25T02:46:19.056Z,1009.52
2019-01-25T02:46:59.648Z,1009.52
2019-01-25T02:47:40.233Z,1009.51
2019-01-25T02:48:20.792Z,1009.53
2019-01-25T02:49:01.416Z,1009.5
2019-01-25T02:49:41.983Z,1009.53
2019-01-25T02:50:22.563Z,1009.54
2019-01-25T02:51:03.168Z,1009.51
2019-01-25T02:51:43.761Z,1009.48
2019-01-25T02:52:24.357Z,1009.52
2019-01-25T02:53:04.933Z,1009.48
2019-01-25T02:53:45.524Z,1009.48
2019-01-25T02:54:26.098Z,1009.47
2019-01-25T02:55:06.666Z,1009.49
2019-01-25T02:55:47.244Z,1009.49
2019-01-25T02:56:27.838Z,1009.5
2019-01-25T02:57:08.404Z,1009.51
2019-01-25T02:57:48.986Z,1009.52
2019-01-25T02:58:29.565Z,1009.51
2019-01-25T02:59:10.147Z,1009.54
2019-01-25T02:59:50.714Z,1009.55
2019-01-25T03:00:31.293Z,1009.53
2019-01-25T03:01:11.869Z,1009.54
2019-01-25T03:01:52.455Z,1009.51
2019-01-25T03:02:33.056Z,1009.53
2019-01-25T03:03:13.624Z,1009.52
2019-01-25T03:03:54.193Z,1009.52
2019-01-25T03:04:34.804Z,1009.53
2019-01-25T03:05:15.394Z,1009.52
2019-01-25T03:05:55.959Z,1009.52
2019-01-25T03:06:36.547Z,1009.54
2019-01-25T03:07:17.139Z,1009.51
2019-01-25T03:07:57.760Z,1009.53
2019-01-25T03:08:38.340Z,1009.5
2019-01-25T03:09:18.927Z,1009.49
2019-01-25T03:09:59.504Z,1009.5
2019-01-25T03:10:46.988Z,1009.49
2019-01-25T03:11:20.700Z,1009.49
2019-01-25T03:12:01.271Z,1009.47
2019-01-25T03:12:41.851Z,1009.47
2019-01-25T03:13:22.445Z,1009.49
2019-01-25T03:14:03.017Z,1009.47
2019-01-25T03:14:43.600Z,1009.49
2019-01-25T03:15:24.213Z,1009.48
2019-01-25T03:16:04.815Z,1009.51
2019-01-25T03:16:45.411Z,1009.51
2019-01-25T03:17:26.011Z,1009.52
2019-01-25T03:18:06.584Z,1009.52
2019-01-25T03:18:47.199Z,1009.48
2019-01-25T03:19:27.771Z,1009.49
2019-01-25T03:20:08.345Z,1009.46
2019-01-25T03:20:48.917Z,1009.46
2019-01-25T03:21:29.496Z,1009.47
2019-01-25T03:22:10.089Z,1009.48
2019-01-25T03:22:50.654Z,1009.46
2019-01-25T03:23:31.231Z,1009.47
2019-01-25T03:24:11.804Z,1009.49
2019-01-25T03:24:52.391Z,1009.45
2019-01-25T03:25:32.971Z,1009.46
2019-01-25T03:26:13.542Z,1009.5
2019-01-25T03:26:54.116Z,1009.49
2019-01-25T03:27:34.712Z,1009.49
2019-01-25T03:28:15.307Z,1009.51
2019-01-25T03:28:55.882Z,1009.51
2019-01-25T03:29:36.449Z,1009.52
2019-01-25T03:30:17.033Z,1009.51
2019-01-25T03:30:57.604Z,1009.5
2019-01-25T03:31:38.224Z,1009.56
2019-01-25T03:32:18.781Z,1009.52
2019-01-25T03:33:00.185Z,1009.55
2019-01-25T03:33:39.932Z,1009.53
2019-01-25T03:34:20.512Z,1009.56
2019-01-25T03:35:01.102Z,1009.55
2019-01-25T03:35:41.671Z,1009.58
2019-01-25T03:36:22.240Z,1009.6
2019-01-25T03:37:02.820Z,1009.56
2019-01-25T03:37:43.412Z,1009.61
2019-01-25T03:38:23.983Z,1009.62
2019-01-25T03:39:04.565Z,1009.56
2019-01-25T03:39:45.151Z,1009.59
2019-01-25T03:40:25.825Z,1009.62
2019-01-25T03:41:06.375Z,1009.64
2019-01-25T03:41:46.953Z,1009.62
2019-01-25T03:42:27.521Z,1009.62
2019-01-25T03:43:08.117Z,1009.62
2019-01-25T03:43:48.688Z,1009.64
2019-01-25T03:44:29.263Z,1009.6
2019-01-25T03:45:09.839Z,1009.59
2019-01-25T03:45:50.433Z,1009.6
2019-01-25T03:46:31.038Z,1009.6
2019-01-25T03:47:11.638Z,1009.61
2019-01-25T03:47:52.226Z,1009.58
2019-01-25T03:48:32.792Z,1009.63
2019-01-25T03:49:13.394Z,1009.62
2019-01-25T03:49:53.976Z,1009.57
2019-01-25T03:50:34.595Z,1009.59
2019-01-25T03:51:15.155Z,1009.58
2019-01-25T03:51:55.753Z,1009.61
2019-01-25T03:52:36.330Z,1009.59
2019-01-25T03:53:16.921Z,1009.61
2019-01-25T03:53:57.519Z,1009.61
2019-01-25T03:54:38.106Z,1009.58
2019-01-25T03:55:18.719Z,1009.59
2019-01-25T03:55:59.311Z,1009.61
2019-01-25T03:56:39.912Z,1009.59
2019-01-25T03:57:20.477Z,1009.58
2019-01-25T03:58:01.060Z,1009.59
2019-01-25T03:58:41.639Z,1009.61
2019-01-25T03:59:22.234Z,1009.66
2019-01-25T04:00:02.810Z,1009.63
2019-01-25T04:00:43.384Z,1009.64
2019-01-25T04:01:23.963Z,1009.64
2019-01-25T04:02:04.570Z,1009.65
2019-01-25T04:02:45.149Z,1009.67
2019-01-25T04:03:25.740Z,1009.66
2019-01-25T04:04:06.320Z,1009.69
2019-01-25T04:04:46.931Z,1009.65
2019-01-25T04:05:27.526Z,1009.65
2019-01-25T04:06:08.116Z,1009.67
2019-01-25T04:06:48.687Z,1009.69
2019-01-25T04:07:29.256Z,1009.68
2019-01-25T04:08:09.851Z,1009.62
2019-01-25T04:08:50.432Z,1009.65
2019-01-25T04:09:31.031Z,1009.67
2019-01-25T04:10:11.603Z,1009.66
2019-01-25T04:10:52.197Z,1009.66
2019-01-25T04:11:32.791Z,1009.68
2019-01-25T04:12:13.369Z,1009.63
2019-01-25T04:12:53.932Z,1009.69
2019-01-25T04:13:34.529Z,1009.69
2019-01-25T04:14:15.103Z,1009.7
2019-01-25T04:14:55.691Z,1009.67
2019-01-25T04:15:36.255Z,1009.69
2019-01-25T04:16:16.851Z,1009.65
2019-01-25T04:16:57.435Z,1009.68
2019-01-25T04:17:38.039Z,1009.65
2019-01-25T04:18:18.651Z,1009.69
2019-01-25T04:18:59.224Z,1009.69
2019-01-25T04:19:39.808Z,1009.68
2019-01-25T04:20:20.415Z,1009.65
2019-01-25T04:21:01.029Z,1009.65
2019-01-25T04:21:41.611Z,1009.66
2019-01-25T04:22:22.214Z,1009.69
2019-01-25T04:23:02.789Z,1009.72
2019-01-25T04:23:43.390Z,1009.69
2019-01-25T04:24:23.948Z,1009.72
2019-01-25T04:25:04.527Z,1009.75
2019-01-25T04:25:45.113Z,1009.68
2019-01-25T04:26:25.693Z,1009.65
2019-01-25T04:27:06.264Z,1009.7
2019-01-25T04:27:46.889Z,1009.71
2019-01-25T04:28:27.452Z,1009.68
2019-01-25T04:29:08.051Z,1009.71
2019-01-25T04:29:48.649Z,1009.68
2019-01-25T04:30:29.222Z,1009.65
2019-01-25T04:31:09.822Z,1009.67
2019-01-25T04:31:50.434Z,1009.66
2019-01-25T04:32:31.019Z,1009.68
2019-01-25T04:33:11.594Z,1009.69
2019-01-25T04:33:52.190Z,1009.65
2019-01-25T04:34:32.761Z,1009.68
2019-01-25T04:35:13.356Z,1009.69
2019-01-25T04:35:53.930Z,1009.67
2019-01-25T04:36:34.517Z,1009.68
2019-01-25T04:37:15.115Z,1009.73
2019-01-25T04:37:55.724Z,1009.71
2019-01-25T04:38:36.344Z,1009.7
2019-01-25T04:39:16.934Z,1009.71
2019-01-25T04:39:57.519Z,1009.68
2019-01-25T04:40:38.104Z,1009.7
2019-01-25T04:41:18.698Z,1009.69
2019-01-25T04:41:59.285Z,1009.68
2019-01-25T04:42:39.887Z,1009.69
2019-01-25T04:43:20.493Z,1009.68
2019-01-25T04:44:01.070Z,1009.65
2019-01-25T04:44:41.692Z,1009.7
2019-01-25T04:45:22.267Z,1009.68
2019-01-25T04:46:02.850Z,1009.65
2019-01-25T04:46:43.447Z,1009.69
2019-01-25T04:47:24.013Z,1009.66
2019-01-25T04:48:04.618Z,1009.65
2019-01-25T04:48:45.213Z,1009.64
2019-01-25T04:49:25.803Z,1009.63
2019-01-25T04:50:06.420Z,1009.63
2019-01-25T04:50:54.489Z,1009.63
2019-01-25T04:51:35.097Z,1009.64
2019-01-25T04:52:15.681Z,1009.67
2019-01-25T04:52:56.260Z,1009.65
2019-01-25T04:53:36.835Z,1009.68
2019-01-25T04:54:17.429Z,1009.69
2019-01-25T04:54:58.007Z,1009.67
2019-01-25T04:55:38.645Z,1009.69
2019-01-25T04:56:19.201Z,1009.68
2019-01-25T04:56:59.791Z,1009.65
2019-01-25T04:57:40.373Z,1009.66
2019-01-25T04:58:20.955Z,1009.69
2019-01-25T04:59:01.534Z,1009.64
2019-01-25T04:59:42.120Z,1009.66
2019-01-25T05:00:22.699Z,1009.69
2019-01-25T05:01:03.284Z,1009.72
2019-01-25T05:01:43.901Z,1009.66
2019-01-25T05:02:24.475Z,1009.7
2019-01-25T05:03:05.058Z,1009.7
2019-01-25T05:03:45.622Z,1009.69
2019-01-25T05:04:26.187Z,1009.68
2019-01-25T05:05:06.757Z,1009.68
2019-01-25T05:05:47.314Z,1009.68
2019-01-25T05:06:27.877Z,1009.7
2019-01-25T05:07:08.434Z,1009.71
2019-01-25T05:07:48.984Z,1009.71
2019-01-25T05:08:29.529Z,1009.73
2019-01-25T05:09:10.081Z,1009.71
2019-01-25T05:09:50.635Z,1009.71
2019-01-25T05:10:31.198Z,1009.74
2019-01-25T05:11:19.336Z,1009.76
2019-01-25T05:11:52.315Z,1009.75
2019-01-25T05:12:32.882Z,1009.76
2019-01-25T05:13:13.435Z,1009.76
2019-01-25T05:13:53.996Z,1009.76
2019-01-25T05:14:34.548Z,1009.72
2019-01-25T05:15:15.099Z,1009.77
2019-01-25T05:15:55.673Z,1009.79
2019-01-25T05:16:36.225Z,1009.8
2019-01-25T05:17:16.777Z,1009.78
2019-01-25T05:17:57.343Z,1009.78
2019-01-25T05:18:37.902Z,1009.79
2019-01-25T05:19:18.472Z,1009.81
2019-01-25T05:19:59.068Z,1009.78
2019-01-25T05:20:39.603Z,1009.83
2019-01-25T05:21:20.167Z,1009.8
2019-01-25T05:22:00.723Z,1009.82
2019-01-25T05:22:41.280Z,1009.8
2019-01-25T05:23:21.843Z,1009.83
2019-01-25T05:24:02.409Z,1009.8
2019-01-25T05:24:42.958Z,1009.76
2019-01-25T05:25:23.565Z,1009.77
2019-01-25T05:26:04.129Z,1009.81
2019-01-25T05:26:44.685Z,1009.79
2019-01-25T05:27:25.242Z,1009.79
2019-01-25T05:28:05.797Z,1009.76
2019-01-25T05:28:46.359Z,1009.77
2019-01-25T05:29:26.947Z,1009.76
2019-01-25T05:30:07.504Z,1009.73
2019-01-25T05:30:48.062Z,1009.75
2019-01-25T05:31:28.614Z,1009.75
2019-01-25T05:32:09.202Z,1009.71
2019-01-25T05:32:49.746Z,1009.74
2019-01-25T05:33:30.303Z,1009.77
2019-01-25T05:34:10.875Z,1009.72
2019-01-25T05:34:51.437Z,1009.72
2019-01-25T05:35:31.988Z,1009.74
2019-01-25T05:36:12.562Z,1009.75
2019-01-25T05:36:53.146Z,1009.78
2019-01-25T05:37:33.706Z,1009.76
2019-01-25T05:38:14.262Z,1009.78
2019-01-25T05:38:54.829Z,1009.77
2019-01-25T05:39:35.392Z,1009.74
2019-01-25T05:40:15.956Z,1009.78
2019-01-25T05:40:56.534Z,1009.75
2019-01-25T05:41:37.092Z,1009.71
2019-01-25T05:42:17.690Z,1009.75
2019-01-25T05:42:58.237Z,1009.74
2019-01-25T05:43:38.799Z,1009.67
2019-01-25T05:44:19.356Z,1009.74
2019-01-25T05:44:59.936Z,1009.73
2019-01-25T05:45:40.484Z,1009.71
2019-01-25T05:46:21.046Z,1009.71
2019-01-25T05:47:01.616Z,1009.7
2019-01-25T05:47:42.197Z,1009.66
2019-01-25T05:48:22.754Z,1009.68
2019-01-25T05:49:03.309Z,1009.66
2019-01-25T05:49:43.892Z,1009.71
2019-01-25T05:50:24.439Z,1009.69
2019-01-25T05:51:05.021Z,1009.7
2019-01-25T05:51:45.550Z,1009.71
2019-01-25T05:52:26.119Z,1009.68
2019-01-25T05:53:06.672Z,1009.65
2019-01-25T05:53:47.233Z,1009.7
2019-01-25T05:54:27.984Z,1009.69
2019-01-25T05:55:08.846Z,1009.67
2019-01-25T05:55:49.870Z,1009.66
2019-01-25T05:56:31.087Z,1009.66
2019-01-25T05:57:12.156Z,1009.62
2019-01-25T05:57:53.639Z,1009.65
2019-01-25T05:58:33.598Z,1009.63
2019-01-25T05:59:14.295Z,1009.64
2019-01-25T05:59:55.358Z,1009.7
2019-01-25T06:00:35.918Z,1009.68
2019-01-25T06:01:16.474Z,1009.69
2019-01-25T06:01:57.031Z,1009.67
2019-01-25T06:02:37.614Z,1009.65
2019-01-25T06:03:18.161Z,1009.67
2019-01-25T06:03:58.725Z,1009.64
2019-01-25T06:04:39.285Z,1009.67
2019-01-25T06:05:19.848Z,1009.65
2019-01-25T06:06:00.415Z,1009.65
2019-01-25T06:06:40.983Z,1009.64
2019-01-25T06:07:21.541Z,1009.68
2019-01-25T06:08:02.105Z,1009.62
2019-01-25T06:08:43.923Z,1009.66
2019-01-25T06:09:23.205Z,1009.68
2019-01-25T06:10:03.792Z,1009.64
2019-01-25T06:10:44.362Z,1009.71
2019-01-25T06:11:24.932Z,1009.68
2019-01-25T06:12:05.483Z,1009.67
2019-01-25T06:12:46.052Z,1009.66
2019-01-25T06:13:26.657Z,1009.7
2019-01-25T06:14:07.223Z,1009.7
2019-01-25T06:14:47.770Z,1009.69
2019-01-25T06:15:28.344Z,1009.67
2019-01-25T06:16:08.896Z,1009.64
2019-01-25T06:16:49.471Z,1009.63
2019-01-25T06:17:30.021Z,1009.63
2019-01-25T06:18:10.577Z,1009.62
2019-01-25T06:18:51.135Z,1009.66
2019-01-25T06:19:31.699Z,1009.68
2019-01-25T06:20:12.261Z,1009.69
2019-01-25T06:20:52.818Z,1009.72
2019-01-25T06:21:33.378Z,1009.68
2019-01-25T06:22:13.948Z,1009.72
2019-01-25T06:22:54.530Z,1009.74
2019-01-25T06:23:35.084Z,1009.71
2019-01-25T06:24:15.626Z,1009.72
2019-01-25T06:24:56.180Z,1009.7
2019-01-25T06:25:36.748Z,1009.72
2019-01-25T06:26:17.338Z,1009.71
2019-01-25T06:26:57.922Z,1009.72
2019-01-25T06:27:38.487Z,1009.7
2019-01-25T06:28:19.050Z,1009.76
2019-01-25T06:28:59.620Z,1009.71
2019-01-25T06:29:40.189Z,1009.75
2019-01-25T06:30:20.771Z,1009.69
2019-01-25T06:31:01.325Z,1009.68
2019-01-25T06:31:41.885Z,1009.71
2019-01-25T06:32:22.452Z,1009.73
2019-01-25T06:33:03.028Z,1009.73
2019-01-25T06:33:43.586Z,1009.7
2019-01-25T06:34:24.143Z,1009.73
2019-01-25T06:35:04.748Z,1009.77
2019-01-25T06:35:45.317Z,1009.72
2019-01-25T06:36:25.855Z,1009.72
2019-01-25T06:37:06.410Z,1009.75
2019-01-25T06:37:46.965Z,1009.74
2019-01-25T06:38:27.545Z,1009.77
2019-01-25T06:39:08.114Z,1009.77
2019-01-25T06:39:48.664Z,1009.8
2019-01-25T06:40:29.232Z,1009.8
2019-01-25T06:41:09.793Z,1009.77
2019-01-25T06:41:50.354Z,1009.82
2019-01-25T06:42:30.915Z,1009.83
2019-01-25T06:43:11.506Z,1009.84
2019-01-25T06:43:52.499Z,1009.81
2019-01-25T06:44:33.073Z,1009.89
2019-01-25T06:45:13.645Z,1009.85
2019-01-25T06:45:54.185Z,1009.91
2019-01-25T06:46:34.765Z,1009.91
2019-01-25T06:47:15.309Z,1009.9
2019-01-25T06:47:55.854Z,1009.89
2019-01-25T06:48:36.418Z,1009.88
2019-01-25T06:49:16.999Z,1009.9
2019-01-25T06:49:57.562Z,1009.89
2019-01-25T06:50:38.124Z,1009.9
2019-01-25T06:51:18.683Z,1009.88
2019-01-25T06:51:59.247Z,1009.87
2019-01-25T06:52:39.806Z,1009.93
2019-01-25T06:53:20.400Z,1009.88
2019-01-25T06:54:00.978Z,1009.89
2019-01-25T06:54:41.532Z,1009.92
2019-01-25T06:55:22.105Z,1009.95
2019-01-25T06:56:02.715Z,1009.92
2019-01-25T06:56:43.274Z,1009.94
2019-01-25T06:57:23.832Z,1009.91
2019-01-25T06:58:05.373Z,1009.89
2019-01-25T06:58:44.950Z,1009.89
2019-01-25T06:59:25.511Z,1009.92
2019-01-25T07:00:06.055Z,1009.92
2019-01-25T07:00:46.615Z,1009.92
2019-01-25T07:01:27.172Z,1009.95
2019-01-25T07:02:07.745Z,1009.93
2019-01-25T07:02:48.293Z,1009.91
2019-01-25T07:03:28.851Z,1009.94
2019-01-25T07:04:09.406Z,1009.89
2019-01-25T07:04:50.001Z,1009.97
2019-01-25T07:05:30.561Z,1009.97
2019-01-25T07:06:11.111Z,1009.97
2019-01-25T07:06:51.667Z,1009.95
2019-01-25T07:07:32.240Z,1010.05
2019-01-25T07:08:12.816Z,1010.05
2019-01-25T07:08:53.385Z,1010.03
2019-01-25T07:09:33.956Z,1010
2019-01-25T07:10:14.549Z,1010.04
2019-01-25T07:10:55.110Z,1010.06
2019-01-25T07:11:42.024Z,1010.07
2019-01-25T07:12:16.277Z,1010.06
2019-01-25T07:12:56.845Z,1010.04
2019-01-25T07:13:37.397Z,1010.09
2019-01-25T07:14:18.040Z,1010.1
2019-01-25T07:14:58.599Z,1010.08
2019-01-25T07:15:39.151Z,1010.08
2019-01-25T07:16:19.727Z,1010.09
2019-01-25T07:17:00.379Z,1010.1
2019-01-25T07:17:40.944Z,1010.11
2019-01-25T07:18:21.507Z,1010.09
2019-01-25T07:19:02.055Z,1010.08
2019-01-25T07:19:42.631Z,1010.1
2019-01-25T07:20:23.229Z,1010.07
2019-01-25T07:21:03.800Z,1010.08
2019-01-25T07:21:44.359Z,1010.1
2019-01-25T07:22:24.927Z,1010.08
2019-01-25T07:23:05.494Z,1010.12
2019-01-25T07:23:46.033Z,1010.12
2019-01-25T07:24:26.610Z,1010.14
2019-01-25T07:25:07.155Z,1010.12
2019-01-25T07:25:47.721Z,1010.18
2019-01-25T07:26:28.292Z,1010.17
2019-01-25T07:27:08.851Z,1010.18
2019-01-25T07:27:49.391Z,1010.14
2019-01-25T07:28:29.940Z,1010.15
2019-01-25T07:29:10.507Z,1010.17
2019-01-25T07:29:51.072Z,1010.21
2019-01-25T07:30:31.658Z,1010.17
2019-01-25T07:31:12.406Z,1010.18
2019-01-25T07:31:52.796Z,1010.18
2019-01-25T07:32:33.439Z,1010.15
2019-01-25T07:33:13.986Z,1010.16
2019-01-25T07:33:54.593Z,1010.14
2019-01-25T07:34:35.144Z,1010.13
2019-01-25T07:35:15.743Z,1010.14
2019-01-25T07:35:56.299Z,1010.11
2019-01-25T07:36:36.855Z,1010.14
2019-01-25T07:37:17.409Z,1010.13
2019-01-25T07:37:58.074Z,1010.14
2019-01-25T07:38:38.661Z,1010.17
2019-01-25T07:39:19.278Z,1010.1
2019-01-25T07:39:59.829Z,1010.11
2019-01-25T07:40:40.406Z,1010.11
2019-01-25T07:41:20.981Z,1010.19
2019-01-25T07:42:02.300Z,1010.16
2019-01-25T07:42:42.209Z,1010.14
2019-01-25T07:43:22.881Z,1010.09
2019-01-25T07:44:03.454Z,1010.13
2019-01-25T07:44:44.079Z,1010.13
2019-01-25T07:45:24.781Z,1010.13
2019-01-25T07:46:05.345Z,1010.13
2019-01-25T07:46:45.895Z,1010.13
2019-01-25T07:47:26.469Z,1010.15
2019-01-25T07:48:07.054Z,1010.11
2019-01-25T07:48:48.458Z,1010.13
2019-01-25T07:49:29.020Z,1010.08
2019-01-25T07:50:12.186Z,1010.08
2019-01-25T07:50:52.741Z,1010.08
2019-01-25T07:51:33.329Z,1010.1
2019-01-25T07:52:13.891Z,1010.13
2019-01-25T07:52:54.441Z,1010.14
2019-01-25T07:53:35.027Z,1010.18
2019-01-25T07:54:15.574Z,1010.12
2019-01-25T07:54:56.156Z,1010.15
2019-01-25T07:55:37.080Z,1010.14
2019-01-25T07:56:17.735Z,1010.13
2019-01-25T07:56:58.315Z,1010.12
2019-01-25T07:57:38.910Z,1010.1
2019-01-25T07:58:19.593Z,1010.11
2019-01-25T07:59:00.156Z,1010.11
2019-01-25T07:59:40.819Z,1010.1
2019-01-25T08:00:21.373Z,1010.05
2019-01-25T08:01:02.357Z,1010.1
2019-01-25T08:01:42.900Z,1010.13
2019-01-25T08:02:24.509Z,1010.12
2019-01-25T08:03:05.301Z,1010.12
2019-01-25T08:03:45.870Z,1010.13
2019-01-25T08:04:26.464Z,1010.15
2019-01-25T08:05:08.207Z,1010.14
2019-01-25T08:05:48.847Z,1010.15
2019-01-25T08:06:29.909Z,1010.17
2019-01-25T08:07:12.309Z,1010.1
2019-01-25T08:07:53.346Z,1010.14
2019-01-25T08:08:35.253Z,1010.15
2019-01-25T08:09:16.773Z,1010.14
2019-01-25T08:09:58.220Z,1010.17
2019-01-25T08:10:39.078Z,1010.16
2019-01-25T08:11:20.802Z,1010.14
2019-01-25T08:12:07.448Z,1010.15
2019-01-25T08:12:45.868Z,1010.15
2019-01-25T08:13:26.932Z,1010.13